Portada
METAR-TAF:

METAR-TAF

Aeroports :

Recife, Pernambuco, Brasil

latitud: 08-08S, longitud: 034-55W, altitud: 19 m

Observació

L'informe es va fer fa 1 hora i 2 minuts, a les 10:00 UTC
Vent 10 kt del Sud-Est
Temperatura 28°C
Humitat 62%
Pressió 1013 hPa
Visibilitat 10 km o més
Núvols disperses a una alçada de 2500 ft

METAR: SBRF 211000Z 13010KT 9999 SCT025 28/20 Q1013

Hora: 08:02 (11:02 UTC)

Pronòstic

L'informe es va fer fa 7 hores i 2 minuts, a les 04:00 UTC
Pronòstic vàlid del 21 a les 06 UTC al 22 a les 06 UTC
Vent 8 kt del Sud-Est
Visibilitat 10 km o més
Núvols disperses a una alçada de 1800 ft
Evolucionant progressivament
l' 21 a les 14 UTC al 21 a les 15 UTC
Vent 15 kt del Sud-Est
Evolucionant progressivament
l' 21 a les 23 UTC al 21 a les 24 UTC
Vent 8 kt del Sud-Est

TAF: SBRF 210400Z 2106/2206 13008KT 9999 SCT018 TN24/2108Z TX30/2115Z BECMG 2114/2115 13015KT BECMG 2123/2124 13008KT RMK PEU

Observacions i pronòstics meteorològics de més de 4000 aeroports (METAR i TAF).

Les estacions disponibles són els punts grocs i vermells al mapa.

Posi el ratolí al punt desitjat per veure el nom de l'estació.

Feu clic per veure les observacions i els pronòstics meteorològics.

Per canviar el mapa: feu clic els botons verds amb una creu de color negre per apropar; al botó verd amb un guió per allunyar la imatge; o en les fletxes verdes per a mapes adjacents.


METAR-TAF: